createdAt,value
2018-06-10T00:00:57.830Z,0.00
2018-06-10T00:01:57.999Z,0.00
2018-06-10T00:02:58.171Z,0.00
2018-06-10T00:03:58.347Z,0.00
2018-06-10T00:04:58.527Z,0.00
2018-06-10T00:05:58.711Z,0.00
2018-06-10T00:06:58.880Z,0.00
2018-06-10T00:07:59.092Z,0.00
2018-06-10T00:08:59.281Z,0.00
2018-06-10T00:09:59.481Z,0.00
2018-06-10T00:10:59.647Z,0.00
2018-06-10T00:11:59.834Z,0.00
2018-06-10T00:13:00.052Z,0.00
2018-06-10T00:14:00.191Z,0.00
2018-06-10T00:15:00.394Z,0.00
2018-06-10T00:16:00.537Z,0.00
2018-06-10T00:17:00.745Z,0.00
2018-06-10T00:18:00.912Z,0.00
2018-06-10T00:19:01.132Z,0.00
2018-06-10T00:20:01.304Z,0.00
2018-06-10T00:21:01.464Z,0.00
2018-06-10T00:22:01.655Z,0.00
2018-06-10T00:23:01.835Z,0.00
2018-06-10T00:24:02.042Z,0.00
2018-06-10T00:25:02.216Z,0.00
2018-06-10T00:26:02.434Z,0.00
2018-06-10T00:27:02.574Z,0.00
2018-06-10T00:28:02.795Z,0.00
2018-06-10T00:29:02.939Z,0.00
2018-06-10T00:30:03.154Z,0.00
2018-06-10T00:31:03.347Z,0.00
2018-06-10T00:32:03.519Z,0.00
2018-06-10T00:33:03.688Z,0.00
2018-06-10T00:34:03.882Z,0.00
2018-06-10T00:35:04.080Z,0.00
2018-06-10T00:36:04.310Z,0.00
2018-06-10T00:37:04.427Z,0.00
2018-06-10T00:38:04.610Z,0.00
2018-06-10T00:39:04.770Z,0.00
2018-06-10T00:40:04.951Z,0.00
2018-06-10T00:41:05.133Z,0.00
2018-06-10T00:42:05.319Z,0.00
2018-06-10T00:43:05.504Z,0.00
2018-06-10T00:44:05.718Z,0.00
2018-06-10T00:45:05.904Z,0.00
2018-06-10T00:46:06.089Z,0.00
2018-06-10T00:47:06.281Z,0.00
2018-06-10T00:48:06.514Z,0.00
2018-06-10T00:49:06.696Z,0.00
2018-06-10T00:50:06.809Z,0.00
2018-06-10T00:51:07.007Z,0.00
2018-06-10T00:52:07.171Z,0.00
2018-06-10T00:53:07.353Z,0.00
2018-06-10T00:54:07.572Z,0.00
2018-06-10T00:55:07.717Z,0.00
2018-06-10T00:56:07.900Z,0.00
2018-06-10T00:57:08.075Z,0.00
2018-06-10T00:58:08.259Z,0.00
2018-06-10T00:59:08.437Z,0.00
2018-06-10T01:00:08.680Z,0.00
2018-06-10T01:01:08.822Z,0.00
2018-06-10T01:02:09.003Z,0.00
2018-06-10T01:03:09.166Z,0.00
2018-06-10T01:04:09.311Z,0.00
2018-06-10T01:05:09.519Z,0.00
2018-06-10T01:06:09.702Z,0.00
2018-06-10T01:07:09.919Z,0.00
2018-06-10T01:08:10.093Z,0.00
2018-06-10T01:09:10.244Z,0.00
2018-06-10T01:10:10.429Z,0.00
2018-06-10T01:11:10.593Z,0.00
2018-06-10T01:12:10.814Z,0.00
2018-06-10T01:13:10.992Z,0.00
2018-06-10T01:14:11.174Z,0.00
2018-06-10T01:15:11.314Z,0.00
2018-06-10T01:16:11.569Z,0.00
2018-06-10T01:17:11.687Z,0.00
2018-06-10T01:18:11.851Z,0.00
2018-06-10T01:19:12.033Z,0.00
2018-06-10T01:20:12.225Z,0.00
2018-06-10T01:21:12.441Z,0.00
2018-06-10T01:22:12.616Z,0.00
2018-06-10T01:23:12.791Z,0.00
2018-06-10T01:24:12.948Z,0.00
2018-06-10T01:25:13.143Z,0.00
2018-06-10T01:26:13.382Z,0.00
2018-06-10T01:27:13.484Z,0.00
2018-06-10T01:28:13.689Z,0.00
2018-06-10T01:29:13.842Z,0.00
2018-06-10T01:30:14.013Z,0.00
2018-06-10T01:31:14.209Z,0.00
2018-06-10T01:32:14.438Z,0.00
2018-06-10T01:33:14.576Z,0.00
2018-06-10T01:34:14.761Z,0.00
2018-06-10T01:35:14.944Z,0.00
2018-06-10T01:36:15.116Z,0.00
2018-06-10T01:37:15.288Z,0.00
2018-06-10T01:38:15.480Z,0.00
2018-06-10T01:39:15.705Z,0.00
2018-06-10T01:40:15.853Z,0.00
2018-06-10T01:41:16.031Z,0.00
2018-06-10T01:42:16.223Z,0.00
2018-06-10T01:43:16.436Z,0.00
2018-06-10T01:44:16.569Z,0.00
2018-06-10T01:45:16.741Z,0.00
2018-06-10T01:46:16.938Z,0.00
2018-06-10T01:47:17.085Z,0.00
2018-06-10T01:48:17.266Z,0.00
2018-06-10T01:49:17.475Z,0.00
2018-06-10T01:50:17.625Z,0.00
2018-06-10T01:51:17.833Z,0.00
2018-06-10T01:52:17.996Z,0.00
2018-06-10T01:53:18.191Z,0.00
2018-06-10T01:54:18.416Z,0.00
2018-06-10T01:55:18.554Z,0.00
2018-06-10T01:56:18.753Z,0.00
2018-06-10T01:57:18.950Z,0.00
2018-06-10T01:58:19.135Z,0.00
2018-06-10T01:59:19.340Z,0.00
2018-06-10T02:00:19.480Z,0.00
2018-06-10T02:01:19.691Z,0.00
2018-06-10T02:02:19.877Z,0.00
2018-06-10T02:03:20.033Z,0.00
2018-06-10T02:04:20.206Z,0.00
2018-06-10T02:05:20.378Z,0.00
2018-06-10T02:06:20.539Z,0.00
2018-06-10T02:07:20.781Z,0.00
2018-06-10T02:08:20.919Z,0.00
2018-06-10T02:09:21.113Z,0.00
2018-06-10T02:10:21.275Z,0.00
2018-06-10T02:11:21.474Z,0.00
2018-06-10T02:12:21.635Z,0.00
2018-06-10T02:13:21.852Z,0.00
2018-06-10T02:14:22.024Z,0.00
2018-06-10T02:15:22.234Z,0.00
2018-06-10T02:16:22.381Z,0.00
2018-06-10T02:17:22.580Z,0.00
2018-06-10T02:18:22.753Z,0.00
2018-06-10T02:19:22.973Z,0.00
2018-06-10T02:20:23.120Z,0.00
2018-06-10T02:21:23.348Z,0.00
2018-06-10T02:22:23.497Z,0.00
2018-06-10T02:23:23.707Z,0.00
2018-06-10T02:24:23.845Z,0.00
2018-06-10T02:25:24.029Z,0.00
2018-06-10T02:26:24.230Z,0.00
2018-06-10T02:27:24.412Z,0.00
2018-06-10T02:28:24.575Z,0.00
2018-06-10T02:29:24.768Z,0.00
2018-06-10T02:30:24.940Z,0.00
2018-06-10T02:31:25.120Z,0.00
2018-06-10T02:32:25.329Z,0.00
2018-06-10T02:33:25.520Z,0.00
2018-06-10T02:34:25.748Z,0.00
2018-06-10T02:35:25.909Z,0.00
2018-06-10T02:36:26.105Z,0.00
2018-06-10T02:37:26.279Z,0.00
2018-06-10T02:38:26.428Z,0.00
2018-06-10T02:39:26.599Z,0.00
2018-06-10T02:40:26.809Z,0.00
2018-06-10T02:41:26.971Z,0.00
2018-06-10T02:42:27.145Z,0.00
2018-06-10T02:43:27.358Z,0.00
2018-06-10T02:44:27.510Z,0.00
2018-06-10T02:45:27.717Z,0.00
2018-06-10T02:46:27.886Z,0.00
2018-06-10T02:47:28.071Z,0.00
2018-06-10T02:48:28.265Z,0.00
2018-06-10T02:49:28.407Z,0.00
2018-06-10T02:50:28.615Z,0.00
2018-06-10T02:51:28.768Z,0.00
2018-06-10T02:52:29.007Z,0.00
2018-06-10T02:53:29.146Z,0.00
2018-06-10T02:54:29.337Z,0.00
2018-06-10T02:55:29.510Z,0.00
2018-06-10T02:56:29.717Z,0.00
2018-06-10T02:57:29.846Z,0.00
2018-06-10T02:58:30.038Z,0.00
2018-06-10T02:59:30.211Z,0.00
2018-06-10T03:00:30.422Z,0.00
2018-06-10T03:01:30.561Z,0.00
2018-06-10T03:02:30.743Z,0.00
2018-06-10T03:03:30.929Z,0.00
2018-06-10T03:04:31.131Z,0.00
2018-06-10T03:05:31.300Z,0.00
2018-06-10T03:06:31.501Z,0.00
2018-06-10T03:07:31.657Z,0.00
2018-06-10T03:08:31.835Z,0.00
2018-06-10T03:09:32.008Z,0.00
2018-06-10T03:10:32.211Z,0.00
2018-06-10T03:11:32.383Z,0.00
2018-06-10T03:12:32.574Z,0.00
2018-06-10T03:13:32.750Z,0.00
2018-06-10T03:14:32.939Z,0.00
2018-06-10T03:15:33.125Z,0.00
2018-06-10T03:16:33.325Z,0.00
2018-06-10T03:17:33.518Z,0.00
2018-06-10T03:18:33.653Z,0.00
2018-06-10T03:19:33.873Z,0.00
2018-06-10T03:20:34.031Z,0.00
2018-06-10T03:21:34.257Z,0.00
2018-06-10T03:22:34.408Z,0.00
2018-06-10T03:23:34.620Z,0.00
2018-06-10T03:24:34.802Z,0.00
2018-06-10T03:25:34.963Z,0.00
2018-06-10T03:26:35.152Z,0.00
2018-06-10T03:27:35.303Z,5.63
2018-06-10T03:28:35.520Z,5.63
2018-06-10T03:29:35.723Z,5.63
2018-06-10T03:30:35.886Z,5.63
2018-06-10T03:31:36.055Z,5.63
2018-06-10T03:32:36.316Z,5.63
2018-06-10T03:33:36.433Z,5.63
2018-06-10T03:34:36.636Z,5.63
2018-06-10T03:35:36.787Z,11.25
2018-06-10T03:36:36.958Z,11.25
2018-06-10T03:37:37.186Z,11.25
2018-06-10T03:38:37.361Z,11.25
2018-06-10T03:39:37.501Z,11.25
2018-06-10T03:40:37.682Z,16.88
2018-06-10T03:41:37.864Z,16.88
2018-06-10T03:42:38.058Z,16.88
2018-06-10T03:43:38.270Z,16.88
2018-06-10T03:44:38.411Z,16.88
2018-06-10T03:45:38.597Z,16.88
2018-06-10T03:46:38.782Z,16.88
2018-06-10T03:47:38.988Z,11.25
2018-06-10T03:48:39.160Z,11.25
2018-06-10T03:49:39.346Z,11.25
2018-06-10T03:50:39.554Z,11.25
2018-06-10T03:51:39.731Z,11.25
2018-06-10T03:52:39.904Z,11.25
2018-06-10T03:53:40.092Z,11.25
2018-06-10T03:54:40.273Z,11.25
2018-06-10T03:55:40.483Z,11.25
2018-06-10T03:56:40.670Z,11.25
2018-06-10T03:57:40.847Z,11.25
2018-06-10T03:58:41.031Z,11.25
2018-06-10T03:59:41.207Z,11.25
2018-06-10T04:00:41.387Z,11.25
2018-06-10T04:01:41.576Z,11.25
2018-06-10T04:02:41.769Z,11.25
2018-06-10T04:03:41.936Z,11.25
2018-06-10T04:04:42.148Z,11.25
2018-06-10T04:05:42.323Z,11.25
2018-06-10T04:06:42.496Z,16.88
2018-06-10T04:07:42.680Z,16.88
2018-06-10T04:08:42.857Z,16.88
2018-06-10T04:09:43.042Z,16.88
2018-06-10T04:10:43.219Z,16.88
2018-06-10T04:11:43.451Z,16.88
2018-06-10T04:12:43.603Z,16.88
2018-06-10T04:13:43.782Z,16.88
2018-06-10T04:14:43.961Z,16.88
2018-06-10T04:15:44.147Z,16.88
2018-06-10T04:16:44.359Z,16.88
2018-06-10T04:17:44.507Z,16.88
2018-06-10T04:18:44.697Z,16.88
2018-06-10T04:19:44.884Z,16.88
2018-06-10T04:20:45.069Z,16.88
2018-06-10T04:21:45.254Z,16.88
2018-06-10T04:22:45.448Z,16.88
2018-06-10T04:23:45.625Z,16.88
2018-06-10T04:24:45.830Z,16.88
2018-06-10T04:25:45.992Z,16.88
2018-06-10T04:26:46.190Z,16.88
2018-06-10T04:27:46.368Z,16.88
2018-06-10T04:28:46.550Z,16.88
2018-06-10T04:29:46.747Z,22.50
2018-06-10T04:30:46.953Z,22.50
2018-06-10T04:31:47.133Z,22.50
2018-06-10T04:32:47.301Z,22.50
2018-06-10T04:33:47.480Z,22.50
2018-06-10T04:34:47.683Z,22.50
2018-06-10T04:35:47.840Z,28.13
2018-06-10T04:36:48.023Z,28.13
2018-06-10T04:37:48.225Z,28.13
2018-06-10T04:38:48.465Z,28.13
2018-06-10T04:39:48.604Z,28.13
2018-06-10T04:40:48.764Z,28.13
2018-06-10T04:41:48.944Z,28.13
2018-06-10T04:42:49.161Z,33.75
2018-06-10T04:43:49.297Z,33.75
2018-06-10T04:44:49.492Z,33.75
2018-06-10T04:45:49.677Z,33.75
2018-06-10T04:46:49.863Z,33.75
2018-06-10T04:47:50.054Z,33.75
2018-06-10T04:48:50.254Z,33.75
2018-06-10T04:49:50.408Z,39.38
2018-06-10T04:50:50.589Z,39.38
2018-06-10T04:51:50.823Z,39.38
2018-06-10T04:52:50.995Z,39.38
2018-06-10T04:53:51.123Z,39.38
2018-06-10T04:54:51.311Z,33.75
2018-06-10T04:55:51.496Z,33.75
2018-06-10T04:56:51.698Z,33.75
2018-06-10T04:57:51.857Z,33.75
2018-06-10T04:58:52.040Z,33.75
2018-06-10T04:59:52.232Z,33.75
2018-06-10T05:00:52.414Z,39.38
2018-06-10T05:01:52.610Z,39.38
2018-06-10T05:02:52.800Z,39.38
2018-06-10T05:03:53.011Z,45.00
2018-06-10T05:04:53.151Z,45.00
2018-06-10T05:05:53.323Z,45.00
2018-06-10T05:06:53.551Z,45.00
2018-06-10T05:07:53.746Z,45.00
2018-06-10T05:08:53.863Z,50.63
2018-06-10T05:09:54.057Z,50.63
2018-06-10T05:10:54.222Z,50.63
2018-06-10T05:11:54.445Z,50.63
2018-06-10T05:12:54.615Z,50.63
2018-06-10T05:13:54.792Z,50.63
2018-06-10T05:14:54.982Z,50.63
2018-06-10T05:15:55.159Z,50.63
2018-06-10T05:16:55.343Z,50.63
2018-06-10T05:17:55.543Z,50.63
2018-06-10T05:18:55.708Z,45.00
2018-06-10T05:19:55.925Z,45.00
2018-06-10T05:20:56.103Z,45.00
2018-06-10T05:21:56.257Z,45.00
2018-06-10T05:22:56.483Z,45.00
2018-06-10T05:23:56.622Z,45.00
2018-06-10T05:24:56.791Z,45.00
2018-06-10T05:25:57.074Z,39.38
2018-06-10T05:26:57.159Z,39.38
2018-06-10T05:27:57.362Z,39.38
2018-06-10T05:28:57.547Z,39.38
2018-06-10T05:29:57.735Z,39.38
2018-06-10T05:30:57.897Z,39.38
2018-06-10T05:31:58.075Z,33.75
2018-06-10T05:32:58.284Z,33.75
2018-06-10T05:33:58.442Z,33.75
2018-06-10T05:34:58.631Z,33.75
2018-06-10T05:35:58.836Z,33.75
2018-06-10T05:36:58.998Z,33.75
2018-06-10T05:37:59.182Z,33.75
2018-06-10T05:38:59.380Z,33.75
2018-06-10T05:39:59.557Z,33.75
2018-06-10T05:40:59.758Z,33.75
2018-06-10T05:41:59.962Z,33.75
2018-06-10T05:43:00.130Z,33.75
2018-06-10T05:44:00.333Z,33.75
2018-06-10T05:45:00.520Z,33.75
2018-06-10T05:46:00.683Z,33.75
2018-06-10T05:47:00.879Z,33.75
2018-06-10T05:48:01.070Z,33.75
2018-06-10T05:49:01.273Z,33.75
2018-06-10T05:50:01.451Z,33.75
2018-06-10T05:51:01.640Z,33.75
2018-06-10T05:52:01.790Z,33.75
2018-06-10T05:53:01.969Z,33.75
2018-06-10T05:54:02.145Z,33.75
2018-06-10T05:55:02.337Z,33.75
2018-06-10T05:56:02.528Z,33.75
2018-06-10T05:57:02.703Z,33.75
2018-06-10T05:58:02.915Z,33.75
2018-06-10T05:59:03.139Z,33.75
2018-06-10T06:00:03.244Z,33.75
2018-06-10T06:01:03.440Z,33.75
2018-06-10T06:02:03.622Z,39.38
2018-06-10T06:03:03.830Z,39.38
2018-06-10T06:04:03.969Z,39.38
2018-06-10T06:05:04.195Z,39.38
2018-06-10T06:06:04.344Z,39.38
2018-06-10T06:07:04.520Z,39.38
2018-06-10T06:08:04.727Z,39.38
2018-06-10T06:09:04.886Z,39.38
2018-06-10T06:10:05.083Z,39.38
2018-06-10T06:11:05.269Z,45.00
2018-06-10T06:12:05.443Z,45.00
2018-06-10T06:13:05.639Z,45.00
2018-06-10T06:14:05.806Z,45.00
2018-06-10T06:15:05.999Z,45.00
2018-06-10T06:16:06.182Z,45.00
2018-06-10T06:17:06.377Z,45.00
2018-06-10T06:18:06.563Z,45.00
2018-06-10T06:19:06.750Z,45.00
2018-06-10T06:20:06.935Z,45.00
2018-06-10T06:21:07.107Z,45.00
2018-06-10T06:22:07.294Z,45.00
2018-06-10T06:23:07.487Z,45.00
2018-06-10T06:24:07.672Z,45.00
2018-06-10T06:25:07.863Z,45.00
2018-06-10T06:26:08.036Z,45.00
2018-06-10T06:27:08.218Z,45.00
2018-06-10T06:28:08.444Z,45.00
2018-06-10T06:29:08.620Z,50.63
2018-06-10T06:30:08.798Z,50.63
2018-06-10T06:31:08.983Z,50.63
2018-06-10T06:32:09.156Z,50.63
2018-06-10T06:33:09.342Z,50.63
2018-06-10T06:34:09.522Z,50.63
2018-06-10T06:35:09.707Z,50.63
2018-06-10T06:36:09.900Z,50.63
2018-06-10T06:37:10.114Z,56.25
2018-06-10T06:38:10.279Z,56.25
2018-06-10T06:39:10.493Z,56.25
2018-06-10T06:40:10.663Z,56.25
2018-06-10T06:41:10.813Z,56.25
2018-06-10T06:42:11.004Z,56.25
2018-06-10T06:43:11.199Z,61.88
2018-06-10T06:44:11.348Z,61.88
2018-06-10T06:45:11.534Z,61.88
2018-06-10T06:46:11.754Z,61.88
2018-06-10T06:47:11.939Z,61.88
2018-06-10T06:48:12.089Z,61.88
2018-06-10T06:49:12.280Z,61.88
2018-06-10T06:50:12.495Z,61.88
2018-06-10T06:51:12.632Z,61.88
2018-06-10T06:52:12.845Z,67.50
2018-06-10T06:53:13.021Z,67.50
2018-06-10T06:54:13.207Z,67.50
2018-06-10T06:55:13.389Z,67.50
2018-06-10T06:56:13.574Z,73.13
2018-06-10T06:57:13.771Z,73.13
2018-06-10T06:58:13.934Z,78.75
2018-06-10T06:59:14.144Z,84.38
2018-06-10T07:00:14.319Z,84.38
2018-06-10T07:01:14.510Z,84.38
2018-06-10T07:02:14.700Z,90.00
2018-06-10T07:03:14.924Z,90.00
2018-06-10T07:04:15.112Z,95.63
2018-06-10T07:05:15.258Z,95.63
2018-06-10T07:06:15.481Z,101.25
2018-06-10T07:07:15.611Z,106.88
2018-06-10T07:08:15.808Z,106.88
2018-06-10T07:09:16.012Z,112.50
2018-06-10T07:10:16.170Z,118.13
2018-06-10T07:11:16.374Z,118.13
2018-06-10T07:12:16.551Z,123.75
2018-06-10T07:13:16.713Z,123.75
2018-06-10T07:14:16.909Z,129.38
2018-06-10T07:15:17.080Z,129.38
2018-06-10T07:16:17.276Z,135.00
2018-06-10T07:17:17.456Z,135.00
2018-06-10T07:18:17.648Z,135.00
2018-06-10T07:19:17.841Z,140.63
2018-06-10T07:20:18.025Z,146.25
2018-06-10T07:21:18.169Z,146.25
2018-06-10T07:22:18.367Z,151.88
2018-06-10T07:23:18.564Z,157.50
2018-06-10T07:24:18.761Z,151.88
2018-06-10T07:25:18.914Z,151.88
2018-06-10T07:26:19.135Z,151.88
2018-06-10T07:27:19.265Z,151.88
2018-06-10T07:28:19.452Z,151.88
2018-06-10T07:29:19.643Z,151.88
2018-06-10T07:30:19.837Z,151.88
2018-06-10T07:31:20.039Z,146.25
2018-06-10T07:32:20.222Z,146.25
2018-06-10T07:33:20.409Z,146.25
2018-06-10T07:34:20.581Z,146.25
2018-06-10T07:35:20.739Z,146.25
2018-06-10T07:36:20.951Z,146.25
2018-06-10T07:37:21.148Z,146.25
2018-06-10T07:38:21.300Z,146.25
2018-06-10T07:39:21.461Z,146.25
2018-06-10T07:40:21.655Z,146.25
2018-06-10T07:41:21.817Z,151.88
2018-06-10T07:42:22.077Z,157.50
2018-06-10T07:43:22.190Z,163.13
2018-06-10T07:44:22.366Z,168.75
2018-06-10T07:45:22.564Z,174.38
2018-06-10T07:46:22.751Z,185.63
2018-06-10T07:47:22.937Z,191.25
2018-06-10T07:48:23.182Z,208.13
2018-06-10T07:49:23.338Z,202.50
2018-06-10T07:50:23.510Z,208.13
2018-06-10T07:51:23.690Z,213.75
2018-06-10T07:52:23.879Z,219.38
2018-06-10T07:53:24.055Z,219.38
2018-06-10T07:54:24.248Z,241.88
2018-06-10T07:55:24.437Z,264.38
2018-06-10T07:56:24.624Z,303.75
2018-06-10T07:57:24.804Z,511.88
2018-06-10T07:58:24.977Z,472.50
2018-06-10T07:59:25.159Z,489.38
2018-06-10T08:00:25.367Z,545.63
2018-06-10T08:01:25.537Z,556.88
2018-06-10T08:02:25.719Z,523.13
2018-06-10T08:03:25.936Z,478.13
2018-06-10T08:04:26.107Z,416.25
2018-06-10T08:05:26.284Z,410.63
2018-06-10T08:06:26.460Z,405.00
2018-06-10T08:07:26.648Z,416.25
2018-06-10T08:08:26.839Z,635.63
2018-06-10T08:09:27.034Z,360.00
2018-06-10T08:10:27.222Z,309.38
2018-06-10T08:11:27.393Z,275.63
2018-06-10T08:12:27.577Z,230.63
2018-06-10T08:13:27.761Z,191.25
2018-06-10T08:14:28.004Z,151.88
2018-06-10T08:15:28.130Z,118.13
2018-06-10T08:16:28.312Z,95.63
2018-06-10T08:17:28.512Z,78.75
2018-06-10T08:18:28.714Z,61.88
2018-06-10T08:19:28.877Z,61.88
2018-06-10T08:20:29.077Z,56.25
2018-06-10T08:21:29.249Z,50.63
2018-06-10T08:22:29.426Z,45.00
2018-06-10T08:23:29.666Z,45.00
2018-06-10T08:24:29.822Z,45.00
2018-06-10T08:25:30.016Z,45.00
2018-06-10T08:26:30.264Z,45.00
2018-06-10T08:27:30.386Z,50.63
2018-06-10T08:28:30.573Z,50.63
2018-06-10T08:29:30.766Z,50.63
2018-06-10T08:30:30.951Z,50.63
2018-06-10T08:31:31.140Z,50.63
2018-06-10T08:32:31.336Z,50.63
2018-06-10T08:33:31.525Z,56.25
2018-06-10T08:34:31.714Z,56.25
2018-06-10T08:35:31.910Z,56.25
2018-06-10T08:36:32.097Z,56.25
2018-06-10T08:37:32.286Z,56.25
2018-06-10T08:38:32.478Z,56.25
2018-06-10T08:39:32.680Z,61.88
2018-06-10T08:40:32.872Z,61.88
2018-06-10T08:41:33.072Z,61.88
2018-06-10T08:42:33.255Z,61.88
2018-06-10T08:43:33.418Z,56.25
2018-06-10T08:44:33.614Z,61.88
2018-06-10T08:45:33.803Z,67.50
2018-06-10T08:46:33.987Z,67.50
2018-06-10T08:47:34.173Z,73.13
2018-06-10T08:48:34.371Z,73.13
2018-06-10T08:49:34.556Z,78.75
2018-06-10T08:50:34.751Z,78.75
2018-06-10T08:51:34.932Z,78.75
2018-06-10T08:52:35.115Z,84.38
2018-06-10T08:53:35.302Z,84.38
2018-06-10T08:54:35.483Z,90.00
2018-06-10T08:55:35.674Z,95.63
2018-06-10T08:56:35.857Z,95.63
2018-06-10T08:57:36.070Z,101.25
2018-06-10T08:58:36.224Z,106.88
2018-06-10T08:59:36.416Z,106.88
2018-06-10T09:00:36.623Z,106.88
2018-06-10T09:01:36.794Z,112.50
2018-06-10T09:02:37.005Z,118.13
2018-06-10T09:03:37.183Z,123.75
2018-06-10T09:04:37.344Z,129.38
2018-06-10T09:05:37.631Z,140.63
2018-06-10T09:06:37.669Z,140.63
2018-06-10T09:07:37.880Z,151.88
2018-06-10T09:08:38.136Z,168.75
2018-06-10T09:09:38.252Z,180.00
2018-06-10T09:10:38.413Z,185.63
2018-06-10T09:11:38.601Z,185.63
2018-06-10T09:12:38.785Z,191.25
2018-06-10T09:13:38.960Z,202.50
2018-06-10T09:14:39.178Z,213.75
2018-06-10T09:15:39.416Z,219.38
2018-06-10T09:16:39.543Z,219.38
2018-06-10T09:17:39.688Z,219.38
2018-06-10T09:18:39.889Z,219.38
2018-06-10T09:19:40.096Z,219.38
2018-06-10T09:20:40.254Z,213.75
2018-06-10T09:21:40.443Z,208.13
2018-06-10T09:22:40.626Z,202.50
2018-06-10T09:23:40.823Z,196.88
2018-06-10T09:24:41.050Z,202.50
2018-06-10T09:25:41.173Z,202.50
2018-06-10T09:26:41.353Z,208.13
2018-06-10T09:27:41.543Z,208.13
2018-06-10T09:28:42.140Z,213.75
2018-06-10T09:29:41.947Z,219.38
2018-06-10T09:30:42.132Z,225.00
2018-06-10T09:31:42.329Z,230.63
2018-06-10T09:32:42.514Z,241.88
2018-06-10T09:33:42.709Z,253.13
2018-06-10T09:34:42.892Z,264.38
2018-06-10T09:35:43.071Z,275.63
2018-06-10T09:36:43.273Z,281.25
2018-06-10T09:37:43.474Z,281.25
2018-06-10T09:38:43.647Z,281.25
2018-06-10T09:39:43.832Z,275.63
2018-06-10T09:40:44.011Z,270.00
2018-06-10T09:41:44.197Z,264.38
2018-06-10T09:42:44.377Z,258.75
2018-06-10T09:43:44.587Z,253.13
2018-06-10T09:44:44.738Z,247.50
2018-06-10T09:45:44.924Z,247.50
2018-06-10T09:46:45.105Z,247.50
2018-06-10T09:47:45.304Z,253.13
2018-06-10T09:48:45.470Z,258.75
2018-06-10T09:49:45.656Z,258.75
2018-06-10T09:50:45.864Z,264.38
2018-06-10T09:51:46.041Z,258.75
2018-06-10T09:52:46.195Z,270.00
2018-06-10T09:53:46.383Z,281.25
2018-06-10T09:54:46.572Z,309.38
2018-06-10T09:55:46.786Z,326.25
2018-06-10T09:56:46.990Z,320.63
2018-06-10T09:57:47.134Z,331.88
2018-06-10T09:58:47.318Z,326.25
2018-06-10T09:59:47.494Z,331.88
2018-06-10T10:00:47.686Z,382.50
2018-06-10T10:01:47.863Z,388.13
2018-06-10T10:02:48.078Z,393.75
2018-06-10T10:03:48.237Z,416.25
2018-06-10T10:04:48.413Z,433.13
2018-06-10T10:05:48.601Z,421.88
2018-06-10T10:06:48.780Z,388.13
2018-06-10T10:07:48.986Z,365.63
2018-06-10T10:08:49.236Z,393.75
2018-06-10T10:09:49.364Z,371.25
2018-06-10T10:10:49.542Z,371.25
2018-06-10T10:11:49.738Z,438.75
2018-06-10T10:12:49.911Z,410.63
2018-06-10T10:13:50.101Z,399.38
2018-06-10T10:14:50.290Z,416.25
2018-06-10T10:15:50.475Z,382.50
2018-06-10T10:16:50.681Z,371.25
2018-06-10T10:17:50.866Z,371.25
2018-06-10T10:18:51.052Z,382.50
2018-06-10T10:19:51.210Z,371.25
2018-06-10T10:20:51.428Z,360.00
2018-06-10T10:21:51.576Z,376.88
2018-06-10T10:22:51.785Z,405.00
2018-06-10T10:23:51.945Z,393.75
2018-06-10T10:24:52.136Z,399.38
2018-06-10T10:25:52.348Z,388.13
2018-06-10T10:26:52.534Z,348.75
2018-06-10T10:27:52.710Z,331.88
2018-06-10T10:28:52.967Z,326.25
2018-06-10T10:29:53.144Z,331.88
2018-06-10T10:30:53.375Z,343.13
2018-06-10T10:31:53.499Z,343.13
2018-06-10T10:32:53.702Z,343.13
2018-06-10T10:33:53.888Z,348.75
2018-06-10T10:34:54.102Z,354.38
2018-06-10T10:35:54.251Z,360.00
2018-06-10T10:36:54.435Z,371.25
2018-06-10T10:37:54.619Z,376.88
2018-06-10T10:38:54.808Z,376.88
2018-06-10T10:39:54.982Z,382.50
2018-06-10T10:40:55.195Z,376.88
2018-06-10T10:41:55.356Z,365.63
2018-06-10T10:42:55.536Z,365.63
2018-06-10T10:43:55.704Z,360.00
2018-06-10T10:44:55.906Z,354.38
2018-06-10T10:45:56.083Z,343.13
2018-06-10T10:46:56.250Z,348.75
2018-06-10T10:47:56.455Z,348.75
2018-06-10T10:48:56.652Z,382.50
2018-06-10T10:49:56.836Z,410.63
2018-06-10T10:50:57.047Z,444.38
2018-06-10T10:51:57.212Z,433.13
2018-06-10T10:52:57.391Z,438.75
2018-06-10T10:53:57.565Z,405.00
2018-06-10T10:54:57.797Z,393.75
2018-06-10T10:55:57.927Z,382.50
2018-06-10T10:56:58.180Z,382.50
2018-06-10T10:57:58.335Z,371.25
2018-06-10T10:58:58.532Z,376.88
2018-06-10T10:59:58.687Z,405.00
2018-06-10T11:00:58.819Z,427.50
2018-06-10T11:01:59.122Z,427.50
2018-06-10T11:02:59.215Z,433.13
2018-06-10T11:03:59.386Z,433.13
2018-06-10T11:04:59.586Z,421.88
2018-06-10T11:05:59.792Z,416.25
2018-06-10T11:06:59.944Z,382.50
2018-06-10T11:08:00.168Z,371.25
2018-06-10T11:09:00.358Z,376.88
2018-06-10T11:10:00.540Z,382.50
2018-06-10T11:11:00.823Z,399.38
2018-06-10T11:12:00.918Z,399.38
2018-06-10T11:13:01.104Z,399.38
2018-06-10T11:14:01.308Z,382.50
2018-06-10T11:15:01.486Z,371.25
2018-06-10T11:16:01.696Z,354.38
2018-06-10T11:17:01.839Z,320.63
2018-06-10T11:18:02.033Z,303.75
2018-06-10T11:19:02.215Z,298.13
2018-06-10T11:20:02.407Z,309.38
2018-06-10T11:21:02.602Z,320.63
2018-06-10T11:22:02.792Z,320.63
2018-06-10T11:23:02.989Z,309.38
2018-06-10T11:24:03.183Z,303.75
2018-06-10T11:25:03.374Z,298.13
2018-06-10T11:26:03.566Z,303.75
2018-06-10T11:27:03.781Z,303.75
2018-06-10T11:28:03.965Z,303.75
2018-06-10T11:29:04.145Z,315.00
2018-06-10T11:30:04.339Z,247.50
2018-06-10T11:31:04.569Z,208.13
2018-06-10T11:32:04.718Z,191.25
2018-06-10T11:33:04.910Z,191.25
2018-06-10T11:34:05.108Z,191.25
2018-06-10T11:35:05.290Z,230.63
2018-06-10T11:36:05.501Z,191.25
2018-06-10T11:37:05.699Z,247.50
2018-06-10T11:38:05.886Z,236.25
2018-06-10T11:39:06.080Z,202.50
2018-06-10T11:40:06.270Z,208.13
2018-06-10T11:41:06.468Z,196.88
2018-06-10T11:42:06.660Z,196.88
2018-06-10T11:43:06.846Z,191.25
2018-06-10T11:44:07.035Z,191.25
2018-06-10T11:45:07.235Z,180.00
2018-06-10T11:46:07.427Z,168.75
2018-06-10T11:47:07.624Z,168.75
2018-06-10T11:48:07.816Z,174.38
2018-06-10T11:49:08.004Z,174.38
2018-06-10T11:50:08.216Z,174.38
2018-06-10T11:51:08.390Z,191.25
2018-06-10T11:52:08.644Z,241.88
2018-06-10T11:53:08.776Z,180.00
2018-06-10T11:54:08.968Z,180.00
2018-06-10T11:55:09.169Z,196.88
2018-06-10T11:56:09.345Z,191.25
2018-06-10T11:57:09.544Z,236.25
2018-06-10T11:58:09.755Z,270.00
2018-06-10T11:59:09.911Z,270.00
2018-06-10T12:00:10.115Z,191.25
2018-06-10T12:01:10.322Z,180.00
2018-06-10T12:02:10.483Z,185.63
2018-06-10T12:03:10.676Z,191.25
2018-06-10T12:04:10.867Z,185.63
2018-06-10T12:05:11.090Z,180.00
2018-06-10T12:06:11.246Z,168.75
2018-06-10T12:07:11.441Z,151.88
2018-06-10T12:08:11.629Z,151.88
2018-06-10T12:09:11.826Z,151.88
2018-06-10T12:10:12.013Z,151.88
2018-06-10T12:11:12.205Z,157.50
2018-06-10T12:12:12.390Z,163.13
2018-06-10T12:13:12.635Z,163.13
2018-06-10T12:14:12.778Z,180.00
2018-06-10T12:15:12.968Z,196.88
2018-06-10T12:16:13.170Z,213.75
2018-06-10T12:17:13.350Z,230.63
2018-06-10T12:18:13.544Z,230.63
2018-06-10T12:19:13.735Z,264.38
2018-06-10T12:20:13.926Z,236.25
2018-06-10T12:21:14.122Z,230.63
2018-06-10T12:22:14.310Z,236.25
2018-06-10T12:23:14.503Z,275.63
2018-06-10T12:24:14.693Z,253.13
2018-06-10T12:25:14.885Z,208.13
2018-06-10T12:26:15.077Z,185.63
2018-06-10T12:27:15.273Z,191.25
2018-06-10T12:28:15.462Z,191.25
2018-06-10T12:29:15.693Z,180.00
2018-06-10T12:30:15.851Z,191.25
2018-06-10T12:31:16.044Z,180.00
2018-06-10T12:32:16.240Z,180.00
2018-06-10T12:33:16.428Z,185.63
2018-06-10T12:34:16.620Z,185.63
2018-06-10T12:35:16.837Z,191.25
2018-06-10T12:36:17.013Z,208.13
2018-06-10T12:37:17.202Z,225.00
2018-06-10T12:38:17.395Z,236.25
2018-06-10T12:39:17.597Z,219.38
2018-06-10T12:40:17.784Z,247.50
2018-06-10T12:41:17.954Z,270.00
2018-06-10T12:42:18.190Z,247.50
2018-06-10T12:43:18.348Z,270.00
2018-06-10T12:44:18.547Z,264.38
2018-06-10T12:45:19.493Z,264.38
2018-06-10T12:46:18.922Z,258.75
2018-06-10T12:47:19.118Z,253.13
2018-06-10T12:48:19.297Z,241.88
2018-06-10T12:49:19.521Z,236.25
2018-06-10T12:50:19.748Z,236.25
2018-06-10T12:51:19.937Z,213.75
2018-06-10T12:52:20.019Z,219.38